sensor_id;sensor_type;location;lat;lon;timestamp;temperature;humidity
34542;DHT22;20784;51.332;12.410;2023-04-01T00:02:02;10.40;99.90
34542;DHT22;20784;51.332;12.410;2023-04-01T00:04:30;10.30;99.90
34542;DHT22;20784;51.332;12.410;2023-04-01T00:07:06;10.30;99.90
34542;DHT22;20784;51.332;12.410;2023-04-01T00:09:44;10.30;99.90
34542;DHT22;20784;51.332;12.410;2023-04-01T00:12:13;10.30;99.90
34542;DHT22;20784;51.332;12.410;2023-04-01T00:14:38;10.40;99.90
34542;DHT22;20784;51.332;12.410;2023-04-01T00:20:07;10.40;99.90
34542;DHT22;20784;51.332;12.410;2023-04-01T00:22:33;10.40;99.90
34542;DHT22;20784;51.332;12.410;2023-04-01T00:25:04;10.40;99.90
34542;DHT22;20784;51.332;12.410;2023-04-01T00:27:33;10.40;99.90
34542;DHT22;20784;51.332;12.410;2023-04-01T00:30:04;10.50;99.90
34542;DHT22;20784;51.332;12.410;2023-04-01T00:32:36;10.40;99.90
34542;DHT22;20784;51.332;12.410;2023-04-01T00:35:07;10.50;99.90
34542;DHT22;20784;51.332;12.410;2023-04-01T00:37:58;10.40;99.90
34542;DHT22;20784;51.332;12.410;2023-04-01T00:40:41;10.40;99.90
34542;DHT22;20784;51.332;12.410;2023-04-01T00:43:15;10.40;99.90
34542;DHT22;20784;51.332;12.410;2023-04-01T00:45:44;10.40;99.90
34542;DHT22;20784;51.332;12.410;2023-04-01T00:50:38;10.40;99.90
34542;DHT22;20784;51.332;12.410;2023-04-01T00:53:09;10.40;99.90
34542;DHT22;20784;51.332;12.410;2023-04-01T00:58:28;10.40;99.90
34542;DHT22;20784;51.332;12.410;2023-04-01T01:01:05;10.30;99.90
34542;DHT22;20784;51.332;12.410;2023-04-01T01:03:59;10.30;99.90
34542;DHT22;20784;51.332;12.410;2023-04-01T01:11:47;10.40;99.90
34542;DHT22;20784;51.332;12.410;2023-04-01T01:14:23;10.40;99.90
34542;DHT22;20784;51.332;12.410;2023-04-01T01:16:53;10.40;99.90
34542;DHT22;20784;51.332;12.410;2023-04-01T01:28:02;10.40;99.90
34542;DHT22;20784;51.332;12.410;2023-04-01T01:30:37;10.40;99.90
34542;DHT22;20784;51.332;12.410;2023-04-01T01:36:01;10.40;99.90
34542;DHT22;20784;51.332;12.410;2023-04-01T01:38:33;10.40;99.90
34542;DHT22;20784;51.332;12.410;2023-04-01T01:41:17;10.40;99.90
34542;DHT22;20784;51.332;12.410;2023-04-01T01:43:54;10.40;99.90
34542;DHT22;20784;51.332;12.410;2023-04-01T01:46:41;10.40;99.90
34542;DHT22;20784;51.332;12.410;2023-04-01T01:49:10;10.40;99.90
34542;DHT22;20784;51.332;12.410;2023-04-01T01:51:48;10.30;99.90
34542;DHT22;20784;51.332;12.410;2023-04-01T01:54:16;10.50;99.90
34542;DHT22;20784;51.332;12.410;2023-04-01T01:56:46;10.50;99.90
34542;DHT22;20784;51.332;12.410;2023-04-01T01:59:17;10.50;99.90
34542;DHT22;20784;51.332;12.410;2023-04-01T02:01:51;10.50;99.90
34542;DHT22;20784;51.332;12.410;2023-04-01T02:04:18;10.50;99.90
34542;DHT22;20784;51.332;12.410;2023-04-01T02:06:59;10.50;99.90
34542;DHT22;20784;51.332;12.410;2023-04-01T02:09:30;10.50;99.90
34542;DHT22;20784;51.332;12.410;2023-04-01T02:11:57;10.50;99.90
34542;DHT22;20784;51.332;12.410;2023-04-01T02:14:28;10.40;99.90
34542;DHT22;20784;51.332;12.410;2023-04-01T02:16:58;10.40;99.90
34542;DHT22;20784;51.332;12.410;2023-04-01T02:19:32;10.40;99.90
34542;DHT22;20784;51.332;12.410;2023-04-01T02:22:01;10.50;99.90
34542;DHT22;20784;51.332;12.410;2023-04-01T02:24:31;10.50;99.90
34542;DHT22;20784;51.332;12.410;2023-04-01T02:27:01;10.50;99.90
34542;DHT22;20784;51.332;12.410;2023-04-01T02:29:34;10.50;99.90
34542;DHT22;20784;51.332;12.410;2023-04-01T02:34:49;10.50;99.90
34542;DHT22;20784;51.332;12.410;2023-04-01T02:37:15;10.40;99.90
34542;DHT22;20784;51.332;12.410;2023-04-01T02:39:44;10.50;99.90
34542;DHT22;20784;51.332;12.410;2023-04-01T02:42:13;10.50;99.90
34542;DHT22;20784;51.332;12.410;2023-04-01T02:44:38;10.50;99.90
34542;DHT22;20784;51.332;12.410;2023-04-01T02:47:04;10.40;99.90
34542;DHT22;20784;51.332;12.410;2023-04-01T02:49:35;10.40;99.90
34542;DHT22;20784;51.332;12.410;2023-04-01T02:52:03;10.40;99.90
34542;DHT22;20784;51.332;12.410;2023-04-01T02:54:31;10.50;99.90
34542;DHT22;20784;51.332;12.410;2023-04-01T02:56:59;10.50;99.90
34542;DHT22;20784;51.332;12.410;2023-04-01T02:59:28;10.50;99.90
34542;DHT22;20784;51.332;12.410;2023-04-01T03:01:54;10.50;99.90
34542;DHT22;20784;51.332;12.410;2023-04-01T03:04:22;10.50;99.90
34542;DHT22;20784;51.332;12.410;2023-04-01T03:06:56;10.50;99.90
34542;DHT22;20784;51.332;12.410;2023-04-01T03:09:25;10.50;99.90
34542;DHT22;20784;51.332;12.410;2023-04-01T03:12:02;10.40;99.90
34542;DHT22;20784;51.332;12.410;2023-04-01T03:14:28;10.50;99.90
34542;DHT22;20784;51.332;12.410;2023-04-01T03:16:56;10.50;99.90
34542;DHT22;20784;51.332;12.410;2023-04-01T03:19:46;10.50;99.90
34542;DHT22;20784;51.332;12.410;2023-04-01T03:22:28;10.50;99.90
34542;DHT22;20784;51.332;12.410;2023-04-01T03:25:22;10.40;99.90
34542;DHT22;20784;51.332;12.410;2023-04-01T03:27:55;10.50;99.90
34542;DHT22;20784;51.332;12.410;2023-04-01T03:30:24;10.50;99.90
34542;DHT22;20784;51.332;12.410;2023-04-01T03:32:57;10.50;99.90
34542;DHT22;20784;51.332;12.410;2023-04-01T03:35:28;10.50;99.90
34542;DHT22;20784;51.332;12.410;2023-04-01T03:38:01;10.40;99.90
34542;DHT22;20784;51.332;12.410;2023-04-01T03:40:32;10.40;99.90
34542;DHT22;20784;51.332;12.410;2023-04-01T03:43:08;10.40;99.90
34542;DHT22;20784;51.332;12.410;2023-04-01T03:45:47;10.40;99.90
34542;DHT22;20784;51.332;12.410;2023-04-01T03:48:15;10.40;99.90
34542;DHT22;20784;51.332;12.410;2023-04-01T03:50:44;10.40;99.90
34542;DHT22;20784;51.332;12.410;2023-04-01T03:53:10;10.40;99.90
34542;DHT22;20784;51.332;12.410;2023-04-01T03:55:41;10.40;99.90
34542;DHT22;20784;51.332;12.410;2023-04-01T03:58:09;10.40;99.90
34542;DHT22;20784;51.332;12.410;2023-04-01T04:00:37;10.40;99.90
34542;DHT22;20784;51.332;12.410;2023-04-01T04:03:03;10.50;99.90
34542;DHT22;20784;51.332;12.410;2023-04-01T04:05:29;10.40;99.90
34542;DHT22;20784;51.332;12.410;2023-04-01T04:08:07;10.30;99.90
34542;DHT22;20784;51.332;12.410;2023-04-01T04:10:33;10.50;99.90
34542;DHT22;20784;51.332;12.410;2023-04-01T04:13:00;10.40;99.90
34542;DHT22;20784;51.332;12.410;2023-04-01T04:15:29;10.30;99.90
34542;DHT22;20784;51.332;12.410;2023-04-01T04:17:54;10.30;99.90
34542;DHT22;20784;51.332;12.410;2023-04-01T04:20:20;10.40;99.90
34542;DHT22;20784;51.332;12.410;2023-04-01T04:22:46;10.30;99.90
34542;DHT22;20784;51.332;12.410;2023-04-01T04:25:19;10.40;99.90
34542;DHT22;20784;51.332;12.410;2023-04-01T04:27:52;10.30;99.90
34542;DHT22;20784;51.332;12.410;2023-04-01T04:30:21;10.30;99.90
34542;DHT22;20784;51.332;12.410;2023-04-01T04:32:55;10.20;99.90
34542;DHT22;20784;51.332;12.410;2023-04-01T04:35:28;10.10;99.90
34542;DHT22;20784;51.332;12.410;2023-04-01T04:38:01;10.20;99.90
34542;DHT22;20784;51.332;12.410;2023-04-01T04:40:29;10.30;99.90
34542;DHT22;20784;51.332;12.410;2023-04-01T04:42:57;10.30;99.90
34542;DHT22;20784;51.332;12.410;2023-04-01T04:45:25;10.30;99.90
34542;DHT22;20784;51.332;12.410;2023-04-01T04:47:53;10.30;99.90
34542;DHT22;20784;51.332;12.410;2023-04-01T04:50:21;10.30;99.90
34542;DHT22;20784;51.332;12.410;2023-04-01T04:52:50;10.30;99.90
34542;DHT22;20784;51.332;12.410;2023-04-01T04:55:18;10.20;99.90
34542;DHT22;20784;51.332;12.410;2023-04-01T04:57:44;10.20;99.90
34542;DHT22;20784;51.332;12.410;2023-04-01T05:00:10;10.10;99.90
34542;DHT22;20784;51.332;12.410;2023-04-01T05:02:36;10.10;99.90
34542;DHT22;20784;51.332;12.410;2023-04-01T05:07:48;10.20;99.90
34542;DHT22;20784;51.332;12.410;2023-04-01T05:10:13;10.20;99.90
34542;DHT22;20784;51.332;12.410;2023-04-01T05:12:39;10.20;99.90
34542;DHT22;20784;51.332;12.410;2023-04-01T05:15:04;10.20;99.90
34542;DHT22;20784;51.332;12.410;2023-04-01T05:17:30;10.20;99.90
34542;DHT22;20784;51.332;12.410;2023-04-01T05:19:56;10.20;99.90
34542;DHT22;20784;51.332;12.410;2023-04-01T05:22:21;10.10;99.90
34542;DHT22;20784;51.332;12.410;2023-04-01T05:24:47;10.10;99.90
34542;DHT22;20784;51.332;12.410;2023-04-01T05:27:12;10.20;99.90
34542;DHT22;20784;51.332;12.410;2023-04-01T05:29:38;10.20;99.90
34542;DHT22;20784;51.332;12.410;2023-04-01T05:32:03;10.10;99.90
34542;DHT22;20784;51.332;12.410;2023-04-01T05:34:29;10.10;99.90
34542;DHT22;20784;51.332;12.410;2023-04-01T05:36:54;10.30;99.90
34542;DHT22;20784;51.332;12.410;2023-04-01T05:39:20;10.30;99.90
34542;DHT22;20784;51.332;12.410;2023-04-01T05:41:45;10.30;99.90
34542;DHT22;20784;51.332;12.410;2023-04-01T05:44:11;10.30;99.90
34542;DHT22;20784;51.332;12.410;2023-04-01T05:46:37;10.40;99.90
34542;DHT22;20784;51.332;12.410;2023-04-01T05:49:02;10.40;99.90
34542;DHT22;20784;51.332;12.410;2023-04-01T05:51:28;10.40;99.90
34542;DHT22;20784;51.332;12.410;2023-04-01T05:53:53;10.40;99.90
34542;DHT22;20784;51.332;12.410;2023-04-01T05:56:19;10.40;99.90
34542;DHT22;20784;51.332;12.410;2023-04-01T05:58:54;10.50;99.90
34542;DHT22;20784;51.332;12.410;2023-04-01T06:01:55;10.50;99.90
34542;DHT22;20784;51.332;12.410;2023-04-01T06:04:22;10.50;99.90
34542;DHT22;20784;51.332;12.410;2023-04-01T06:06:48;10.50;99.90
34542;DHT22;20784;51.332;12.410;2023-04-01T06:09:27;10.50;99.90
34542;DHT22;20784;51.332;12.410;2023-04-01T06:25:30;10.70;99.90
34542;DHT22;20784;51.332;12.410;2023-04-01T06:30:47;10.80;99.90
34542;DHT22;20784;51.332;12.410;2023-04-01T06:33:32;10.90;99.90
34542;DHT22;20784;51.332;12.410;2023-04-01T06:41:17;11.00;99.90
34542;DHT22;20784;51.332;12.410;2023-04-01T06:46:42;11.00;99.90
34542;DHT22;20784;51.332;12.410;2023-04-01T06:51:45;11.00;99.90
34542;DHT22;20784;51.332;12.410;2023-04-01T06:54:16;11.10;99.90
34542;DHT22;20784;51.332;12.410;2023-04-01T06:56:43;11.00;99.90
34542;DHT22;20784;51.332;12.410;2023-04-01T06:59:12;11.00;99.90
34542;DHT22;20784;51.332;12.410;2023-04-01T07:01:50;11.10;99.90
34542;DHT22;20784;51.332;12.410;2023-04-01T07:04:31;11.20;99.90
34542;DHT22;20784;51.332;12.410;2023-04-01T07:07:23;11.30;99.90
34542;DHT22;20784;51.332;12.410;2023-04-01T07:09:56;11.30;99.90
34542;DHT22;20784;51.332;12.410;2023-04-01T07:14:55;11.50;99.90
34542;DHT22;20784;51.332;12.410;2023-04-01T07:17:30;11.50;99.90
34542;DHT22;20784;51.332;12.410;2023-04-01T07:19:58;11.50;99.90
34542;DHT22;20784;51.332;12.410;2023-04-01T07:22:38;11.60;99.90
34542;DHT22;20784;51.332;12.410;2023-04-01T07:25:13;11.50;99.90
34542;DHT22;20784;51.332;12.410;2023-04-01T07:27:38;11.50;99.90
34542;DHT22;20784;51.332;12.410;2023-04-01T07:30:06;11.60;99.90
34542;DHT22;20784;51.332;12.410;2023-04-01T07:32:45;11.60;99.90
34542;DHT22;20784;51.332;12.410;2023-04-01T07:35:27;11.60;99.90
34542;DHT22;20784;51.332;12.410;2023-04-01T07:45:56;11.50;99.90
34542;DHT22;20784;51.332;12.410;2023-04-01T07:50:54;11.60;99.90
34542;DHT22;20784;51.332;12.410;2023-04-01T07:53:24;11.70;99.90
34542;DHT22;20784;51.332;12.410;2023-04-01T07:55:59;11.80;99.90
34542;DHT22;20784;51.332;12.410;2023-04-01T08:06:10;12.00;99.90
34542;DHT22;20784;51.332;12.410;2023-04-01T08:13:44;11.80;99.90
34542;DHT22;20784;51.332;12.410;2023-04-01T08:21:25;11.90;99.90
34542;DHT22;20784;51.332;12.410;2023-04-01T08:23:54;12.00;99.90
34542;DHT22;20784;51.332;12.410;2023-04-01T08:28:54;11.90;99.90
34542;DHT22;20784;51.332;12.410;2023-04-01T08:31:34;11.80;99.90
34542;DHT22;20784;51.332;12.410;2023-04-01T08:34:02;11.90;99.90
34542;DHT22;20784;51.332;12.410;2023-04-01T08:36:37;11.90;99.90
34542;DHT22;20784;51.332;12.410;2023-04-01T08:39:04;12.00;99.90
34542;DHT22;20784;51.332;12.410;2023-04-01T08:41:46;12.10;99.90
34542;DHT22;20784;51.332;12.410;2023-04-01T08:44:24;12.20;99.90
34542;DHT22;20784;51.332;12.410;2023-04-01T08:46:56;12.30;99.90
34542;DHT22;20784;51.332;12.410;2023-04-01T08:49:37;12.40;99.90
34542;DHT22;20784;51.332;12.410;2023-04-01T08:52:13;12.30;99.90
34542;DHT22;20784;51.332;12.410;2023-04-01T08:59:56;12.30;99.90
34542;DHT22;20784;51.332;12.410;2023-04-01T09:02:38;12.20;99.90
34542;DHT22;20784;51.332;12.410;2023-04-01T09:07:58;12.40;99.90
34542;DHT22;20784;51.332;12.410;2023-04-01T09:13:39;12.70;99.90
34542;DHT22;20784;51.332;12.410;2023-04-01T09:18:38;13.30;99.90
34542;DHT22;20784;51.332;12.410;2023-04-01T09:23:38;13.20;99.90
34542;DHT22;20784;51.332;12.410;2023-04-01T09:28:42;13.20;99.90
34542;DHT22;20784;51.332;12.410;2023-04-01T09:36:46;13.10;99.90
34542;DHT22;20784;51.332;12.410;2023-04-01T09:41:57;13.00;99.90
34542;DHT22;20784;51.332;12.410;2023-04-01T09:44:32;13.00;99.90
34542;DHT22;20784;51.332;12.410;2023-04-01T09:52:18;13.00;99.90
34542;DHT22;20784;51.332;12.410;2023-04-01T09:57:39;12.80;99.90
34542;DHT22;20784;51.332;12.410;2023-04-01T10:02:44;13.00;99.90
34542;DHT22;20784;51.332;12.410;2023-04-01T10:13:08;13.10;99.90
34542;DHT22;20784;51.332;12.410;2023-04-01T10:15:46;13.00;99.90
34542;DHT22;20784;51.332;12.410;2023-04-01T10:21:09;12.70;99.90
34542;DHT22;20784;51.332;12.410;2023-04-01T10:36:56;13.10;99.90
34542;DHT22;20784;51.332;12.410;2023-04-01T10:55:32;13.20;99.90
34542;DHT22;20784;51.332;12.410;2023-04-01T11:00:43;13.30;99.90
34542;DHT22;20784;51.332;12.410;2023-04-01T11:08:37;13.60;99.90
34542;DHT22;20784;51.332;12.410;2023-04-01T11:16:32;14.20;99.90
34542;DHT22;20784;51.332;12.410;2023-04-01T11:19:09;14.40;99.90
34542;DHT22;20784;51.332;12.410;2023-04-01T11:21:55;14.50;99.90
34542;DHT22;20784;51.332;12.410;2023-04-01T11:27:11;14.60;99.90
34542;DHT22;20784;51.332;12.410;2023-04-01T11:40:40;14.50;99.90
34542;DHT22;20784;51.332;12.410;2023-04-01T11:43:16;14.80;99.90
34542;DHT22;20784;51.332;12.410;2023-04-01T11:45:58;14.90;99.90
34542;DHT22;20784;51.332;12.410;2023-04-01T11:48:38;15.10;99.90
34542;DHT22;20784;51.332;12.410;2023-04-01T11:51:30;15.00;99.90
34542;DHT22;20784;51.332;12.410;2023-04-01T11:56:56;14.90;99.90
34542;DHT22;20784;51.332;12.410;2023-04-01T12:02:48;13.80;99.90
34542;DHT22;20784;51.332;12.410;2023-04-01T12:05:37;13.70;99.90
34542;DHT22;20784;51.332;12.410;2023-04-01T12:13:50;13.60;99.90
34542;DHT22;20784;51.332;12.410;2023-04-01T12:16:30;13.50;99.90
34542;DHT22;20784;51.332;12.410;2023-04-01T12:27:24;13.20;99.90
34542;DHT22;20784;51.332;12.410;2023-04-01T12:30:14;13.10;99.90
34542;DHT22;20784;51.332;12.410;2023-04-01T12:33:18;13.00;99.90
34542;DHT22;20784;51.332;12.410;2023-04-01T12:39:05;13.00;99.90
34542;DHT22;20784;51.332;12.410;2023-04-01T12:41:59;12.90;99.90
34542;DHT22;20784;51.332;12.410;2023-04-01T12:50:14;12.90;99.90
34542;DHT22;20784;51.332;12.410;2023-04-01T12:53:11;13.00;99.90
34542;DHT22;20784;51.332;12.410;2023-04-01T12:55:38;13.10;99.90
34542;DHT22;20784;51.332;12.410;2023-04-01T13:01:16;13.10;99.90
34542;DHT22;20784;51.332;12.410;2023-04-01T13:04:25;13.10;99.90
34542;DHT22;20784;51.332;12.410;2023-04-01T13:10:07;13.10;99.90
34542;DHT22;20784;51.332;12.410;2023-04-01T13:15:46;12.80;99.90
34542;DHT22;20784;51.332;12.410;2023-04-01T13:21:35;13.00;99.90
34542;DHT22;20784;51.332;12.410;2023-04-01T13:27:09;13.20;99.90
34542;DHT22;20784;51.332;12.410;2023-04-01T13:32:54;13.20;99.90
34542;DHT22;20784;51.332;12.410;2023-04-01T13:38:17;13.10;99.90
34542;DHT22;20784;51.332;12.410;2023-04-01T13:43:23;13.00;99.90
34542;DHT22;20784;51.332;12.410;2023-04-01T13:48:36;12.90;99.90
34542;DHT22;20784;51.332;12.410;2023-04-01T13:54:46;12.90;99.90
34542;DHT22;20784;51.332;12.410;2023-04-01T13:57:55;12.70;99.90
34542;DHT22;20784;51.332;12.410;2023-04-01T14:00:54;12.70;99.90
34542;DHT22;20784;51.332;12.410;2023-04-01T14:04:52;12.70;99.90
34542;DHT22;20784;51.332;12.410;2023-04-01T14:07:16;12.70;99.90
34542;DHT22;20784;51.332;12.410;2023-04-01T14:10:28;12.80;99.90
34542;DHT22;20784;51.332;12.410;2023-04-01T14:13:00;12.80;99.90
34542;DHT22;20784;51.332;12.410;2023-04-01T14:15:54;12.70;99.90
34542;DHT22;20784;51.332;12.410;2023-04-01T14:19:11;12.70;99.90
34542;DHT22;20784;51.332;12.410;2023-04-01T14:21:29;12.80;99.90
34542;DHT22;20784;51.332;12.410;2023-04-01T14:24:26;12.80;99.90
34542;DHT22;20784;51.332;12.410;2023-04-01T14:32:51;12.80;99.90
34542;DHT22;20784;51.332;12.410;2023-04-01T14:35:41;12.80;99.90
34542;DHT22;20784;51.332;12.410;2023-04-01T14:38:35;12.80;99.90
34542;DHT22;20784;51.332;12.410;2023-04-01T14:44:46;12.90;99.90
34542;DHT22;20784;51.332;12.410;2023-04-01T14:55:54;13.00;99.90
34542;DHT22;20784;51.332;12.410;2023-04-01T14:58:24;12.90;99.90
34542;DHT22;20784;51.332;12.410;2023-04-01T15:03:32;12.80;99.90
34542;DHT22;20784;51.332;12.410;2023-04-01T15:09:20;12.90;99.90
34542;DHT22;20784;51.332;12.410;2023-04-01T15:11:37;12.90;99.90
34542;DHT22;20784;51.332;12.410;2023-04-01T15:14:35;12.80;99.90
34542;DHT22;20784;51.332;12.410;2023-04-01T15:17:05;12.90;99.90
34542;DHT22;20784;51.332;12.410;2023-04-01T15:19:50;12.80;99.90
34542;DHT22;20784;51.332;12.410;2023-04-01T15:25:19;12.80;99.90
34542;DHT22;20784;51.332;12.410;2023-04-01T15:28:07;12.90;99.90
34542;DHT22;20784;51.332;12.410;2023-04-01T15:31:07;12.90;99.90
34542;DHT22;20784;51.332;12.410;2023-04-01T15:34:08;12.90;99.90
34542;DHT22;20784;51.332;12.410;2023-04-01T15:57:36;12.70;99.90
34542;DHT22;20784;51.332;12.410;2023-04-01T16:00:46;12.60;99.90
34542;DHT22;20784;51.332;12.410;2023-04-01T16:03:33;12.80;99.90
34542;DHT22;20784;51.332;12.410;2023-04-01T16:06:12;12.60;99.90
34542;DHT22;20784;51.332;12.410;2023-04-01T16:17:40;12.50;99.90
34542;DHT22;20784;51.332;12.410;2023-04-01T16:23:03;12.50;99.90
34542;DHT22;20784;51.332;12.410;2023-04-01T16:25:41;12.40;99.90
34542;DHT22;20784;51.332;12.410;2023-04-01T16:33:47;12.50;99.90
34542;DHT22;20784;51.332;12.410;2023-04-01T16:36:34;12.50;99.90
34542;DHT22;20784;51.332;12.410;2023-04-01T16:39:41;12.40;99.90
34542;DHT22;20784;51.332;12.410;2023-04-01T16:48:20;12.30;99.90
34542;DHT22;20784;51.332;12.410;2023-04-01T16:53:42;12.30;99.90
34542;DHT22;20784;51.332;12.410;2023-04-01T16:56:16;12.30;99.90
34542;DHT22;20784;51.332;12.410;2023-04-01T16:59:13;12.30;99.90
34542;DHT22;20784;51.332;12.410;2023-04-01T17:04:17;12.20;99.90
34542;DHT22;20784;51.332;12.410;2023-04-01T17:06:57;12.10;99.90
34542;DHT22;20784;51.332;12.410;2023-04-01T17:09:42;12.10;99.90
34542;DHT22;20784;51.332;12.410;2023-04-01T17:15:40;11.90;99.90
34542;DHT22;20784;51.332;12.410;2023-04-01T17:21:15;12.00;99.90
34542;DHT22;20784;51.332;12.410;2023-04-01T17:23:53;11.90;99.90
34542;DHT22;20784;51.332;12.410;2023-04-01T17:26:40;11.90;99.90
34542;DHT22;20784;51.332;12.410;2023-04-01T17:29:46;11.90;99.90
34542;DHT22;20784;51.332;12.410;2023-04-01T17:38:09;11.90;99.90
34542;DHT22;20784;51.332;12.410;2023-04-01T17:40:50;11.90;99.90
34542;DHT22;20784;51.332;12.410;2023-04-01T17:44:14;11.80;99.90
34542;DHT22;20784;51.332;12.410;2023-04-01T17:52:23;11.80;99.90
34542;DHT22;20784;51.332;12.410;2023-04-01T17:55:22;11.70;99.90
34542;DHT22;20784;51.332;12.410;2023-04-01T17:58:06;11.70;99.90
34542;DHT22;20784;51.332;12.410;2023-04-01T18:04:07;11.70;99.90
34542;DHT22;20784;51.332;12.410;2023-04-01T18:06:58;11.60;99.90
34542;DHT22;20784;51.332;12.410;2023-04-01T18:09:55;11.60;99.90
34542;DHT22;20784;51.332;12.410;2023-04-01T18:21:47;11.50;99.90
34542;DHT22;20784;51.332;12.410;2023-04-01T18:24:28;11.60;99.90
34542;DHT22;20784;51.332;12.410;2023-04-01T18:27:16;11.50;99.90
34542;DHT22;20784;51.332;12.410;2023-04-01T18:32:46;11.40;99.90
34542;DHT22;20784;51.332;12.410;2023-04-01T18:38:51;11.40;99.90
34542;DHT22;20784;51.332;12.410;2023-04-01T18:41:28;11.30;99.90
34542;DHT22;20784;51.332;12.410;2023-04-01T18:48:08;11.20;99.90
34542;DHT22;20784;51.332;12.410;2023-04-01T18:56:22;11.30;99.90
34542;DHT22;20784;51.332;12.410;2023-04-01T19:02:28;11.40;99.90
34542;DHT22;20784;51.332;12.410;2023-04-01T19:07:48;11.20;99.90
34542;DHT22;20784;51.332;12.410;2023-04-01T19:16:43;11.10;99.90
34542;DHT22;20784;51.332;12.410;2023-04-01T19:21:58;11.10;99.90
34542;DHT22;20784;51.332;12.410;2023-04-01T19:36:51;10.80;99.90
34542;DHT22;20784;51.332;12.410;2023-04-01T19:42:42;10.70;99.90
34542;DHT22;20784;51.332;12.410;2023-04-01T19:45:20;10.60;99.90
34542;DHT22;20784;51.332;12.410;2023-04-01T19:56:20;10.30;99.90
34542;DHT22;20784;51.332;12.410;2023-04-01T19:59:21;10.20;99.90
34542;DHT22;20784;51.332;12.410;2023-04-01T20:04:44;9.90;99.90
34542;DHT22;20784;51.332;12.410;2023-04-01T20:10:28;9.90;99.90
34542;DHT22;20784;51.332;12.410;2023-04-01T20:13:11;9.90;99.90
34542;DHT22;20784;51.332;12.410;2023-04-01T20:16:03;9.80;99.90
34542;DHT22;20784;51.332;12.410;2023-04-01T20:18:39;9.70;99.90
34542;DHT22;20784;51.332;12.410;2023-04-01T20:21:43;9.70;99.90
34542;DHT22;20784;51.332;12.410;2023-04-01T20:26:43;9.60;99.90
34542;DHT22;20784;51.332;12.410;2023-04-01T20:29:36;9.50;99.90
34542;DHT22;20784;51.332;12.410;2023-04-01T20:34:58;9.50;99.90
34542;DHT22;20784;51.332;12.410;2023-04-01T20:37:36;9.40;99.90
34542;DHT22;20784;51.332;12.410;2023-04-01T20:40:33;9.20;99.90
34542;DHT22;20784;51.332;12.410;2023-04-01T20:43:16;9.20;99.90
34542;DHT22;20784;51.332;12.410;2023-04-01T20:46:00;9.20;99.90
34542;DHT22;20784;51.332;12.410;2023-04-01T20:48:39;9.10;99.90
34542;DHT22;20784;51.332;12.410;2023-04-01T20:51:31;9.20;99.90
34542;DHT22;20784;51.332;12.410;2023-04-01T20:54:19;9.20;99.90
34542;DHT22;20784;51.332;12.410;2023-04-01T21:02:25;9.00;99.90
34542;DHT22;20784;51.332;12.410;2023-04-01T21:13:36;8.80;99.90
34542;DHT22;20784;51.332;12.410;2023-04-01T21:22:36;8.70;99.90
34542;DHT22;20784;51.332;12.410;2023-04-01T21:25:28;8.60;99.90
34542;DHT22;20784;51.332;12.410;2023-04-01T21:31:10;8.50;99.90
34542;DHT22;20784;51.332;12.410;2023-04-01T21:47:39;8.20;99.90
34542;DHT22;20784;51.332;12.410;2023-04-01T21:51:14;8.20;99.90
34542;DHT22;20784;51.332;12.410;2023-04-01T21:59:52;8.10;99.90
34542;DHT22;20784;51.332;12.410;2023-04-01T22:02:40;8.10;99.90
34542;DHT22;20784;51.332;12.410;2023-04-01T22:05:11;8.10;99.90
34542;DHT22;20784;51.332;12.410;2023-04-01T22:08:08;8.00;99.90
34542;DHT22;20784;51.332;12.410;2023-04-01T22:13:43;7.70;99.90
34542;DHT22;20784;51.332;12.410;2023-04-01T22:17:02;7.60;99.90
34542;DHT22;20784;51.332;12.410;2023-04-01T22:19:13;7.60;99.90
34542;DHT22;20784;51.332;12.410;2023-04-01T22:21:53;7.60;99.90
34542;DHT22;20784;51.332;12.410;2023-04-01T22:24:29;7.60;99.90
34542;DHT22;20784;51.332;12.410;2023-04-01T22:27:19;7.60;99.90
34542;DHT22;20784;51.332;12.410;2023-04-01T22:33:05;7.60;99.90
34542;DHT22;20784;51.332;12.410;2023-04-01T22:35:40;7.50;99.90
34542;DHT22;20784;51.332;12.410;2023-04-01T22:38:37;7.50;99.90
34542;DHT22;20784;51.332;12.410;2023-04-01T22:41:16;7.40;99.90
34542;DHT22;20784;51.332;12.410;2023-04-01T22:43:49;7.40;99.90
34542;DHT22;20784;51.332;12.410;2023-04-01T22:46:51;7.40;99.90
34542;DHT22;20784;51.332;12.410;2023-04-01T22:49:47;7.40;99.90
34542;DHT22;20784;51.332;12.410;2023-04-01T22:55:00;7.10;99.90
34542;DHT22;20784;51.332;12.410;2023-04-01T23:00:07;7.10;99.90
34542;DHT22;20784;51.332;12.410;2023-04-01T23:02:46;7.20;99.90
34542;DHT22;20784;51.332;12.410;2023-04-01T23:05:15;7.20;99.90
34542;DHT22;20784;51.332;12.410;2023-04-01T23:07:52;7.10;99.90
34542;DHT22;20784;51.332;12.410;2023-04-01T23:10:39;7.00;99.90
34542;DHT22;20784;51.332;12.410;2023-04-01T23:13:12;7.00;99.90
34542;DHT22;20784;51.332;12.410;2023-04-01T23:15:39;7.00;99.90
34542;DHT22;20784;51.332;12.410;2023-04-01T23:18:22;6.90;99.90
34542;DHT22;20784;51.332;12.410;2023-04-01T23:21:08;6.90;99.90
34542;DHT22;20784;51.332;12.410;2023-04-01T23:23:45;6.80;99.90
34542;DHT22;20784;51.332;12.410;2023-04-01T23:26:21;6.80;99.90
34542;DHT22;20784;51.332;12.410;2023-04-01T23:28:55;6.70;99.90
34542;DHT22;20784;51.332;12.410;2023-04-01T23:33:58;6.60;99.90
34542;DHT22;20784;51.332;12.410;2023-04-01T23:36:25;6.60;99.90
34542;DHT22;20784;51.332;12.410;2023-04-01T23:38:51;6.60;99.90
34542;DHT22;20784;51.332;12.410;2023-04-01T23:41:28;6.60;99.90
34542;DHT22;20784;51.332;12.410;2023-04-01T23:44:01;6.60;99.90
34542;DHT22;20784;51.332;12.410;2023-04-01T23:46:29;6.60;99.90
34542;DHT22;20784;51.332;12.410;2023-04-01T23:48:55;6.40;99.90
34542;DHT22;20784;51.332;12.410;2023-04-01T23:51:25;6.50;99.90
34542;DHT22;20784;51.332;12.410;2023-04-01T23:54:13;6.50;99.90
34542;DHT22;20784;51.332;12.410;2023-04-01T23:56:46;6.50;99.90
34542;DHT22;20784;51.332;12.410;2023-04-01T23:59:28;6.60;99.90
